Amity, Pennsylvania
Current Conditions -  °F | °C
As of 10:55 AM on Monday 24 Nov 2014 (Local Time) from KAFJ Reporting Station
Broken Clouds Broken Clouds  
Wind Chill: 66°   Ceiling: 7000
Heat Index: 66°   Visibility: 10mi
Dew Point: 46°   Wind: 28mph
Humidity: 49%   Direction: 200°SSW
Pressure: 29.44"   Gusts: 37mph
Location:  40.03°N, 80.2°W
Report Text: KAFJ 241555Z 20024G32KT 10SM SCT060 BKN070 19/08 A2944 RMK AO1
Loading
Personal Weather Stations






























Interactive Weather Map New forecast layout! Learn more

10-Day Weather Forecast

Advertisements
Track Severe Weather on mobile